sensor_id;sensor_type;location;lat;lon;timestamp;P1;durP1;ratioP1;P2;durP2;ratioP2
21848;SDS011;11089;49.852;19.700;2022-08-26T00:01:53;12.40;;;5.22;;
21848;SDS011;11089;49.852;19.700;2022-08-26T00:04:55;13.23;;;5.38;;
21848;SDS011;11089;49.852;19.700;2022-08-26T00:07:56;19.05;;;6.05;;
21848;SDS011;11089;49.852;19.700;2022-08-26T00:10:56;11.20;;;5.35;;
21848;SDS011;11089;49.852;19.700;2022-08-26T00:13:58;17.42;;;6.25;;
21848;SDS011;11089;49.852;19.700;2022-08-26T00:16:58;11.05;;;4.70;;
21848;SDS011;11089;49.852;19.700;2022-08-26T00:20:00;11.32;;;5.30;;
21848;SDS011;11089;49.852;19.700;2022-08-26T00:23:01;10.77;;;5.72;;
21848;SDS011;11089;49.852;19.700;2022-08-26T00:26:03;18.17;;;5.90;;
21848;SDS011;11089;49.852;19.700;2022-08-26T00:29:05;21.58;;;5.88;;
21848;SDS011;11089;49.852;19.700;2022-08-26T00:32:06;20.38;;;6.25;;
21848;SDS011;11089;49.852;19.700;2022-08-26T00:35:07;12.43;;;5.97;;
21848;SDS011;11089;49.852;19.700;2022-08-26T00:38:09;13.00;;;5.78;;
21848;SDS011;11089;49.852;19.700;2022-08-26T00:41:10;12.57;;;5.60;;
21848;SDS011;11089;49.852;19.700;2022-08-26T00:44:11;11.88;;;5.70;;
21848;SDS011;11089;49.852;19.700;2022-08-26T00:47:21;11.13;;;5.70;;
21848;SDS011;11089;49.852;19.700;2022-08-26T00:50:51;14.52;;;5.93;;
21848;SDS011;11089;49.852;19.700;2022-08-26T00:54:05;12.35;;;5.72;;
21848;SDS011;11089;49.852;19.700;2022-08-26T00:57:09;14.02;;;4.97;;
21848;SDS011;11089;49.852;19.700;2022-08-26T01:00:14;9.55;;;5.05;;
21848;SDS011;11089;49.852;19.700;2022-08-26T01:03:19;13.35;;;5.03;;
21848;SDS011;11089;49.852;19.700;2022-08-26T01:06:24;11.40;;;5.35;;
21848;SDS011;11089;49.852;19.700;2022-08-26T01:09:26;8.10;;;4.20;;
21848;SDS011;11089;49.852;19.700;2022-08-26T01:12:28;14.88;;;5.15;;
21848;SDS011;11089;49.852;19.700;2022-08-26T01:15:33;10.13;;;4.95;;
21848;SDS011;11089;49.852;19.700;2022-08-26T01:18:36;10.13;;;4.85;;
21848;SDS011;11089;49.852;19.700;2022-08-26T01:21:44;10.95;;;4.82;;
21848;SDS011;11089;49.852;19.700;2022-08-26T01:25:09;10.77;;;4.53;;
21848;SDS011;11089;49.852;19.700;2022-08-26T01:28:15;9.85;;;4.90;;
21848;SDS011;11089;49.852;19.700;2022-08-26T01:31:24;8.10;;;4.00;;
21848;SDS011;11089;49.852;19.700;2022-08-26T01:34:31;6.68;;;3.95;;
21848;SDS011;11089;49.852;19.700;2022-08-26T01:37:35;8.43;;;3.92;;
21848;SDS011;11089;49.852;19.700;2022-08-26T01:40:38;7.68;;;4.15;;
21848;SDS011;11089;49.852;19.700;2022-08-26T01:43:43;7.82;;;4.25;;
21848;SDS011;11089;49.852;19.700;2022-08-26T01:46:46;14.25;;;4.60;;
21848;SDS011;11089;49.852;19.700;2022-08-26T01:49:50;7.45;;;4.30;;
21848;SDS011;11089;49.852;19.700;2022-08-26T01:52:54;14.10;;;5.25;;
21848;SDS011;11089;49.852;19.700;2022-08-26T01:55:57;12.13;;;4.40;;
21848;SDS011;11089;49.852;19.700;2022-08-26T01:58:59;6.75;;;4.32;;
21848;SDS011;11089;49.852;19.700;2022-08-26T02:02:05;16.13;;;5.30;;
21848;SDS011;11089;49.852;19.700;2022-08-26T02:05:06;11.25;;;5.32;;
21848;SDS011;11089;49.852;19.700;2022-08-26T02:08:13;12.40;;;4.97;;
21848;SDS011;11089;49.852;19.700;2022-08-26T02:11:16;11.70;;;5.13;;
21848;SDS011;11089;49.852;19.700;2022-08-26T02:14:22;11.90;;;4.95;;
21848;SDS011;11089;49.852;19.700;2022-08-26T02:17:37;14.90;;;5.15;;
21848;SDS011;11089;49.852;19.700;2022-08-26T02:20:42;12.45;;;5.32;;
21848;SDS011;11089;49.852;19.700;2022-08-26T02:23:43;12.95;;;4.97;;
21848;SDS011;11089;49.852;19.700;2022-08-26T02:26:44;10.40;;;4.60;;
21848;SDS011;11089;49.852;19.700;2022-08-26T02:29:48;11.73;;;4.85;;
21848;SDS011;11089;49.852;19.700;2022-08-26T02:32:54;10.32;;;5.28;;
21848;SDS011;11089;49.852;19.700;2022-08-26T02:35:57;9.52;;;5.28;;
21848;SDS011;11089;49.852;19.700;2022-08-26T02:38:58;13.15;;;4.32;;
21848;SDS011;11089;49.852;19.700;2022-08-26T02:41:59;11.25;;;4.78;;
21848;SDS011;11089;49.852;19.700;2022-08-26T02:45:00;12.90;;;5.20;;
21848;SDS011;11089;49.852;19.700;2022-08-26T02:48:11;10.07;;;4.63;;
21848;SDS011;11089;49.852;19.700;2022-08-26T02:51:14;10.23;;;5.13;;
21848;SDS011;11089;49.852;19.700;2022-08-26T02:54:15;13.95;;;5.13;;
21848;SDS011;11089;49.852;19.700;2022-08-26T02:57:17;15.82;;;5.45;;
21848;SDS011;11089;49.852;19.700;2022-08-26T03:00:19;8.38;;;4.63;;
21848;SDS011;11089;49.852;19.700;2022-08-26T03:03:21;10.10;;;4.90;;
21848;SDS011;11089;49.852;19.700;2022-08-26T03:06:22;9.75;;;4.88;;
21848;SDS011;11089;49.852;19.700;2022-08-26T03:09:23;9.30;;;5.25;;
21848;SDS011;11089;49.852;19.700;2022-08-26T03:12:24;11.57;;;5.00;;
21848;SDS011;11089;49.852;19.700;2022-08-26T03:15:26;11.63;;;4.75;;
21848;SDS011;11089;49.852;19.700;2022-08-26T03:18:27;10.13;;;4.70;;
21848;SDS011;11089;49.852;19.700;2022-08-26T03:21:28;11.38;;;5.05;;
21848;SDS011;11089;49.852;19.700;2022-08-26T03:24:30;10.65;;;5.43;;
21848;SDS011;11089;49.852;19.700;2022-08-26T03:27:31;18.75;;;5.53;;
21848;SDS011;11089;49.852;19.700;2022-08-26T03:30:32;11.25;;;4.90;;
21848;SDS011;11089;49.852;19.700;2022-08-26T03:33:39;11.65;;;6.15;;
21848;SDS011;11089;49.852;19.700;2022-08-26T03:36:40;16.40;;;6.22;;
21848;SDS011;11089;49.852;19.700;2022-08-26T03:39:41;13.90;;;6.68;;
21848;SDS011;11089;49.852;19.700;2022-08-26T03:42:42;14.88;;;7.20;;
21848;SDS011;11089;49.852;19.700;2022-08-26T03:45:43;13.63;;;6.57;;
21848;SDS011;11089;49.852;19.700;2022-08-26T03:48:44;12.43;;;6.28;;
21848;SDS011;11089;49.852;19.700;2022-08-26T03:51:45;11.80;;;5.93;;
21848;SDS011;11089;49.852;19.700;2022-08-26T03:54:46;13.95;;;6.75;;
21848;SDS011;11089;49.852;19.700;2022-08-26T03:57:47;14.23;;;6.40;;
21848;SDS011;11089;49.852;19.700;2022-08-26T04:00:48;14.43;;;6.28;;
21848;SDS011;11089;49.852;19.700;2022-08-26T04:03:50;11.75;;;6.55;;
21848;SDS011;11089;49.852;19.700;2022-08-26T04:06:58;10.82;;;6.28;;
21848;SDS011;11089;49.852;19.700;2022-08-26T04:09:59;15.07;;;6.18;;
21848;SDS011;11089;49.852;19.700;2022-08-26T04:13:01;12.20;;;5.93;;
21848;SDS011;11089;49.852;19.700;2022-08-26T04:16:02;15.23;;;5.75;;
21848;SDS011;11089;49.852;19.700;2022-08-26T04:19:03;13.25;;;6.60;;
21848;SDS011;11089;49.852;19.700;2022-08-26T04:22:04;11.18;;;5.93;;
21848;SDS011;11089;49.852;19.700;2022-08-26T04:25:05;11.73;;;5.60;;
21848;SDS011;11089;49.852;19.700;2022-08-26T04:28:06;11.48;;;6.10;;
21848;SDS011;11089;49.852;19.700;2022-08-26T04:31:11;12.68;;;6.20;;
21848;SDS011;11089;49.852;19.700;2022-08-26T04:34:14;14.57;;;5.82;;
21848;SDS011;11089;49.852;19.700;2022-08-26T04:37:15;14.57;;;5.72;;
21848;SDS011;11089;49.852;19.700;2022-08-26T04:40:16;14.73;;;5.80;;
21848;SDS011;11089;49.852;19.700;2022-08-26T04:43:17;14.23;;;5.70;;
21848;SDS011;11089;49.852;19.700;2022-08-26T04:46:20;13.77;;;5.82;;
21848;SDS011;11089;49.852;19.700;2022-08-26T04:49:23;11.80;;;6.20;;
21848;SDS011;11089;49.852;19.700;2022-08-26T04:52:24;11.63;;;5.32;;
21848;SDS011;11089;49.852;19.700;2022-08-26T04:55:25;10.80;;;5.38;;
21848;SDS011;11089;49.852;19.700;2022-08-26T04:58:26;12.00;;;5.78;;
21848;SDS011;11089;49.852;19.700;2022-08-26T05:01:27;10.85;;;5.68;;
21848;SDS011;11089;49.852;19.700;2022-08-26T05:04:30;14.35;;;5.82;;
21848;SDS011;11089;49.852;19.700;2022-08-26T05:07:32;11.35;;;5.53;;
21848;SDS011;11089;49.852;19.700;2022-08-26T05:10:37;8.10;;;5.63;;
21848;SDS011;11089;49.852;19.700;2022-08-26T05:13:40;10.57;;;5.85;;
21848;SDS011;11089;49.852;19.700;2022-08-26T05:16:41;11.80;;;4.97;;
21848;SDS011;11089;49.852;19.700;2022-08-26T05:19:41;10.25;;;5.32;;
21848;SDS011;11089;49.852;19.700;2022-08-26T05:22:42;9.73;;;5.18;;
21848;SDS011;11089;49.852;19.700;2022-08-26T05:25:44;11.82;;;5.72;;
21848;SDS011;11089;49.852;19.700;2022-08-26T05:28:46;10.00;;;5.43;;
21848;SDS011;11089;49.852;19.700;2022-08-26T05:31:49;13.10;;;6.55;;
21848;SDS011;11089;49.852;19.700;2022-08-26T05:34:54;13.15;;;5.85;;
21848;SDS011;11089;49.852;19.700;2022-08-26T05:37:57;9.63;;;5.38;;
21848;SDS011;11089;49.852;19.700;2022-08-26T05:40:59;10.18;;;5.53;;
21848;SDS011;11089;49.852;19.700;2022-08-26T05:44:00;9.35;;;5.70;;
21848;SDS011;11089;49.852;19.700;2022-08-26T05:47:02;9.38;;;5.47;;
21848;SDS011;11089;49.852;19.700;2022-08-26T05:50:03;13.57;;;5.88;;
21848;SDS011;11089;49.852;19.700;2022-08-26T05:53:05;12.32;;;6.13;;
21848;SDS011;11089;49.852;19.700;2022-08-26T05:56:08;10.20;;;6.30;;
21848;SDS011;11089;49.852;19.700;2022-08-26T05:59:12;15.25;;;6.97;;
21848;SDS011;11089;49.852;19.700;2022-08-26T06:02:13;67.45;;;36.22;;
21848;SDS011;11089;49.852;19.700;2022-08-26T06:05:14;84.93;;;49.42;;
21848;SDS011;11089;49.852;19.700;2022-08-26T06:08:15;56.78;;;33.35;;
21848;SDS011;11089;49.852;19.700;2022-08-26T06:11:19;34.20;;;19.55;;
21848;SDS011;11089;49.852;19.700;2022-08-26T06:14:24;37.33;;;24.63;;
21848;SDS011;11089;49.852;19.700;2022-08-26T06:17:25;50.72;;;30.95;;
21848;SDS011;11089;49.852;19.700;2022-08-26T06:20:29;37.47;;;22.20;;
21848;SDS011;11089;49.852;19.700;2022-08-26T06:23:30;62.55;;;35.38;;
21848;SDS011;11089;49.852;19.700;2022-08-26T06:26:47;81.03;;;49.38;;
21848;SDS011;11089;49.852;19.700;2022-08-26T06:29:50;43.47;;;24.75;;
21848;SDS011;11089;49.852;19.700;2022-08-26T06:32:51;40.47;;;24.10;;
21848;SDS011;11089;49.852;19.700;2022-08-26T06:35:52;28.85;;;19.40;;
21848;SDS011;11089;49.852;19.700;2022-08-26T06:38:53;27.20;;;16.30;;
21848;SDS011;11089;49.852;19.700;2022-08-26T06:41:58;24.60;;;13.00;;
21848;SDS011;11089;49.852;19.700;2022-08-26T06:44:59;24.30;;;13.27;;
21848;SDS011;11089;49.852;19.700;2022-08-26T06:48:00;21.40;;;11.85;;
21848;SDS011;11089;49.852;19.700;2022-08-26T06:51:05;18.38;;;10.95;;
21848;SDS011;11089;49.852;19.700;2022-08-26T06:54:09;15.60;;;9.55;;
21848;SDS011;11089;49.852;19.700;2022-08-26T06:57:10;17.02;;;8.23;;
21848;SDS011;11089;49.852;19.700;2022-08-26T07:00:12;16.25;;;8.98;;
21848;SDS011;11089;49.852;19.700;2022-08-26T07:03:14;16.23;;;8.68;;
21848;SDS011;11089;49.852;19.700;2022-08-26T07:06:15;13.93;;;8.13;;
21848;SDS011;11089;49.852;19.700;2022-08-26T07:09:21;17.05;;;7.90;;
21848;SDS011;11089;49.852;19.700;2022-08-26T07:12:23;14.32;;;7.50;;
21848;SDS011;11089;49.852;19.700;2022-08-26T07:15:25;14.18;;;7.40;;
21848;SDS011;11089;49.852;19.700;2022-08-26T07:18:26;15.68;;;7.63;;
21848;SDS011;11089;49.852;19.700;2022-08-26T07:21:27;16.77;;;7.60;;
21848;SDS011;11089;49.852;19.700;2022-08-26T07:24:28;15.27;;;7.43;;
21848;SDS011;11089;49.852;19.700;2022-08-26T07:27:29;13.68;;;7.68;;
21848;SDS011;11089;49.852;19.700;2022-08-26T07:30:30;18.00;;;7.95;;
21848;SDS011;11089;49.852;19.700;2022-08-26T07:33:31;13.05;;;6.85;;
21848;SDS011;11089;49.852;19.700;2022-08-26T07:36:32;15.35;;;7.13;;
21848;SDS011;11089;49.852;19.700;2022-08-26T07:39:33;13.18;;;7.38;;
21848;SDS011;11089;49.852;19.700;2022-08-26T07:42:34;17.90;;;7.43;;
21848;SDS011;11089;49.852;19.700;2022-08-26T07:45:35;13.60;;;7.70;;
21848;SDS011;11089;49.852;19.700;2022-08-26T07:48:37;14.57;;;6.95;;
21848;SDS011;11089;49.852;19.700;2022-08-26T07:51:38;19.25;;;7.15;;
21848;SDS011;11089;49.852;19.700;2022-08-26T07:54:39;14.10;;;7.30;;
21848;SDS011;11089;49.852;19.700;2022-08-26T07:57:40;17.00;;;7.50;;
21848;SDS011;11089;49.852;19.700;2022-08-26T08:00:41;13.98;;;6.90;;
21848;SDS011;11089;49.852;19.700;2022-08-26T08:03:42;15.13;;;7.22;;
21848;SDS011;11089;49.852;19.700;2022-08-26T08:06:43;16.35;;;6.82;;
21848;SDS011;11089;49.852;19.700;2022-08-26T08:09:44;12.15;;;5.95;;
21848;SDS011;11089;49.852;19.700;2022-08-26T08:12:49;16.15;;;6.47;;
21848;SDS011;11089;49.852;19.700;2022-08-26T08:15:50;12.80;;;6.05;;
21848;SDS011;11089;49.852;19.700;2022-08-26T08:18:51;11.65;;;5.45;;
21848;SDS011;11089;49.852;19.700;2022-08-26T08:21:52;14.15;;;6.43;;
21848;SDS011;11089;49.852;19.700;2022-08-26T08:24:53;14.32;;;6.25;;
21848;SDS011;11089;49.852;19.700;2022-08-26T08:27:54;13.05;;;5.68;;
21848;SDS011;11089;49.852;19.700;2022-08-26T08:30:55;12.88;;;6.72;;
21848;SDS011;11089;49.852;19.700;2022-08-26T08:33:57;11.57;;;6.10;;
21848;SDS011;11089;49.852;19.700;2022-08-26T08:36:58;12.52;;;6.18;;
21848;SDS011;11089;49.852;19.700;2022-08-26T08:39:59;10.98;;;5.43;;
21848;SDS011;11089;49.852;19.700;2022-08-26T08:46:13;12.70;;;6.25;;
21848;SDS011;11089;49.852;19.700;2022-08-26T08:49:16;14.90;;;6.28;;
21848;SDS011;11089;49.852;19.700;2022-08-26T08:52:26;11.73;;;5.47;;
21848;SDS011;11089;49.852;19.700;2022-08-26T08:55:46;8.50;;;5.53;;
21848;SDS011;11089;49.852;19.700;2022-08-26T09:05:15;14.32;;;5.88;;
21848;SDS011;11089;49.852;19.700;2022-08-26T09:08:20;18.42;;;6.38;;
21848;SDS011;11089;49.852;19.700;2022-08-26T09:11:24;7.63;;;4.95;;
21848;SDS011;11089;49.852;19.700;2022-08-26T09:14:25;8.15;;;5.45;;
21848;SDS011;11089;49.852;19.700;2022-08-26T09:24:07;10.55;;;5.57;;
21848;SDS011;11089;49.852;19.700;2022-08-26T09:27:08;9.95;;;5.70;;
21848;SDS011;11089;49.852;19.700;2022-08-26T09:30:23;16.63;;;6.15;;
21848;SDS011;11089;49.852;19.700;2022-08-26T09:33:27;10.57;;;6.43;;
21848;SDS011;11089;49.852;19.700;2022-08-26T09:36:37;7.60;;;4.88;;
21848;SDS011;11089;49.852;19.700;2022-08-26T09:39:40;8.45;;;5.28;;
21848;SDS011;11089;49.852;19.700;2022-08-26T09:42:41;8.60;;;4.88;;
21848;SDS011;11089;49.852;19.700;2022-08-26T09:45:43;8.80;;;4.80;;
21848;SDS011;11089;49.852;19.700;2022-08-26T09:48:46;11.23;;;4.90;;
21848;SDS011;11089;49.852;19.700;2022-08-26T09:51:47;11.25;;;4.95;;
21848;SDS011;11089;49.852;19.700;2022-08-26T10:01:37;9.85;;;4.18;;
21848;SDS011;11089;49.852;19.700;2022-08-26T10:04:52;13.70;;;5.90;;
21848;SDS011;11089;49.852;19.700;2022-08-26T10:07:56;9.93;;;4.78;;
21848;SDS011;11089;49.852;19.700;2022-08-26T10:10:59;9.95;;;4.68;;
21848;SDS011;11089;49.852;19.700;2022-08-26T10:14:06;8.82;;;4.95;;
21848;SDS011;11089;49.852;19.700;2022-08-26T10:20:30;9.88;;;5.57;;
21848;SDS011;11089;49.852;19.700;2022-08-26T10:23:42;14.25;;;4.95;;
21848;SDS011;11089;49.852;19.700;2022-08-26T10:30:23;8.40;;;4.75;;
21848;SDS011;11089;49.852;19.700;2022-08-26T10:33:31;11.10;;;5.05;;
21848;SDS011;11089;49.852;19.700;2022-08-26T10:36:34;10.18;;;4.50;;
21848;SDS011;11089;49.852;19.700;2022-08-26T10:40:00;14.85;;;5.20;;
21848;SDS011;11089;49.852;19.700;2022-08-26T10:43:16;11.38;;;4.90;;
21848;SDS011;11089;49.852;19.700;2022-08-26T10:46:22;9.63;;;4.28;;
21848;SDS011;11089;49.852;19.700;2022-08-26T10:49:33;8.80;;;5.20;;
21848;SDS011;11089;49.852;19.700;2022-08-26T10:56:08;7.90;;;4.20;;
21848;SDS011;11089;49.852;19.700;2022-08-26T10:59:33;14.27;;;4.60;;
21848;SDS011;11089;49.852;19.700;2022-08-26T11:02:44;7.68;;;4.57;;
21848;SDS011;11089;49.852;19.700;2022-08-26T11:18:54;8.93;;;4.90;;
21848;SDS011;11089;49.852;19.700;2022-08-26T11:25:09;5.35;;;4.38;;
21848;SDS011;11089;49.852;19.700;2022-08-26T11:28:11;6.68;;;4.75;;
21848;SDS011;11089;49.852;19.700;2022-08-26T11:31:53;12.57;;;5.43;;
21848;SDS011;11089;49.852;19.700;2022-08-26T11:34:55;10.75;;;5.85;;
21848;SDS011;11089;49.852;19.700;2022-08-26T11:37:59;5.85;;;4.93;;
21848;SDS011;11089;49.852;19.700;2022-08-26T11:41:05;9.43;;;5.03;;
21848;SDS011;11089;49.852;19.700;2022-08-26T11:44:10;8.98;;;5.20;;
21848;SDS011;11089;49.852;19.700;2022-08-26T11:47:15;8.63;;;5.60;;
21848;SDS011;11089;49.852;19.700;2022-08-26T11:50:25;10.45;;;5.35;;
21848;SDS011;11089;49.852;19.700;2022-08-26T11:53:28;10.10;;;5.28;;
21848;SDS011;11089;49.852;19.700;2022-08-26T11:56:31;7.10;;;4.55;;
21848;SDS011;11089;49.852;19.700;2022-08-26T11:59:35;6.50;;;4.53;;
21848;SDS011;11089;49.852;19.700;2022-08-26T12:02:38;11.80;;;5.03;;
21848;SDS011;11089;49.852;19.700;2022-08-26T12:05:44;7.28;;;4.32;;
21848;SDS011;11089;49.852;19.700;2022-08-26T12:08:48;12.68;;;4.57;;
21848;SDS011;11089;49.852;19.700;2022-08-26T12:11:49;7.05;;;4.40;;
21848;SDS011;11089;49.852;19.700;2022-08-26T12:18:19;10.70;;;4.80;;
21848;SDS011;11089;49.852;19.700;2022-08-26T12:21:25;12.10;;;4.35;;
21848;SDS011;11089;49.852;19.700;2022-08-26T12:24:29;12.52;;;4.70;;
21848;SDS011;11089;49.852;19.700;2022-08-26T12:27:31;8.15;;;4.30;;
21848;SDS011;11089;49.852;19.700;2022-08-26T12:30:34;7.82;;;4.22;;
21848;SDS011;11089;49.852;19.700;2022-08-26T12:33:35;9.65;;;4.55;;
21848;SDS011;11089;49.852;19.700;2022-08-26T12:39:55;11.27;;;4.32;;
21848;SDS011;11089;49.852;19.700;2022-08-26T12:43:40;10.18;;;4.45;;
21848;SDS011;11089;49.852;19.700;2022-08-26T12:46:43;9.27;;;4.43;;
21848;SDS011;11089;49.852;19.700;2022-08-26T12:49:44;8.73;;;3.80;;
21848;SDS011;11089;49.852;19.700;2022-08-26T12:55:59;8.52;;;4.43;;
21848;SDS011;11089;49.852;19.700;2022-08-26T13:05:38;7.82;;;3.97;;
21848;SDS011;11089;49.852;19.700;2022-08-26T13:08:43;8.10;;;4.18;;
21848;SDS011;11089;49.852;19.700;2022-08-26T13:14:47;10.60;;;4.57;;
21848;SDS011;11089;49.852;19.700;2022-08-26T13:17:49;8.95;;;3.67;;
21848;SDS011;11089;49.852;19.700;2022-08-26T13:20:51;7.88;;;3.75;;
21848;SDS011;11089;49.852;19.700;2022-08-26T13:23:52;5.25;;;3.65;;
21848;SDS011;11089;49.852;19.700;2022-08-26T13:26:54;5.70;;;3.55;;
21848;SDS011;11089;49.852;19.700;2022-08-26T13:29:55;7.65;;;3.80;;
21848;SDS011;11089;49.852;19.700;2022-08-26T13:32:58;7.97;;;3.72;;
21848;SDS011;11089;49.852;19.700;2022-08-26T13:35:59;5.75;;;3.47;;
21848;SDS011;11089;49.852;19.700;2022-08-26T13:39:01;8.48;;;4.28;;
21848;SDS011;11089;49.852;19.700;2022-08-26T13:42:02;6.57;;;3.40;;
21848;SDS011;11089;49.852;19.700;2022-08-26T13:45:03;9.32;;;3.60;;
21848;SDS011;11089;49.852;19.700;2022-08-26T13:48:05;10.63;;;3.67;;
21848;SDS011;11089;49.852;19.700;2022-08-26T13:51:08;5.90;;;3.30;;
21848;SDS011;11089;49.852;19.700;2022-08-26T13:54:09;6.38;;;3.72;;
21848;SDS011;11089;49.852;19.700;2022-08-26T13:57:10;8.05;;;3.40;;
21848;SDS011;11089;49.852;19.700;2022-08-26T14:00:11;10.43;;;3.75;;
21848;SDS011;11089;49.852;19.700;2022-08-26T14:03:12;7.18;;;3.70;;
21848;SDS011;11089;49.852;19.700;2022-08-26T14:06:13;8.35;;;3.58;;
21848;SDS011;11089;49.852;19.700;2022-08-26T14:09:15;10.18;;;3.42;;
21848;SDS011;11089;49.852;19.700;2022-08-26T14:12:16;6.40;;;3.20;;
21848;SDS011;11089;49.852;19.700;2022-08-26T14:15:17;6.60;;;3.53;;
21848;SDS011;11089;49.852;19.700;2022-08-26T14:18:19;11.32;;;3.53;;
21848;SDS011;11089;49.852;19.700;2022-08-26T14:21:29;10.30;;;3.40;;
21848;SDS011;11089;49.852;19.700;2022-08-26T14:24:32;9.50;;;3.20;;
21848;SDS011;11089;49.852;19.700;2022-08-26T14:27:33;7.90;;;3.38;;
21848;SDS011;11089;49.852;19.700;2022-08-26T14:30:35;12.05;;;3.78;;
21848;SDS011;11089;49.852;19.700;2022-08-26T14:33:39;5.82;;;3.83;;
21848;SDS011;11089;49.852;19.700;2022-08-26T14:36:41;6.28;;;3.60;;
21848;SDS011;11089;49.852;19.700;2022-08-26T14:39:43;13.93;;;3.53;;
21848;SDS011;11089;49.852;19.700;2022-08-26T14:42:46;8.60;;;3.72;;
21848;SDS011;11089;49.852;19.700;2022-08-26T14:45:49;8.32;;;3.33;;
21848;SDS011;11089;49.852;19.700;2022-08-26T14:48:50;6.45;;;3.20;;
21848;SDS011;11089;49.852;19.700;2022-08-26T14:51:51;8.43;;;3.90;;
21848;SDS011;11089;49.852;19.700;2022-08-26T14:54:52;7.65;;;3.35;;
21848;SDS011;11089;49.852;19.700;2022-08-26T14:57:53;9.13;;;3.65;;
21848;SDS011;11089;49.852;19.700;2022-08-26T15:00:54;6.47;;;3.53;;
21848;SDS011;11089;49.852;19.700;2022-08-26T15:03:55;8.70;;;3.75;;
21848;SDS011;11089;49.852;19.700;2022-08-26T15:06:56;8.13;;;3.75;;
21848;SDS011;11089;49.852;19.700;2022-08-26T15:09:59;11.05;;;3.67;;
21848;SDS011;11089;49.852;19.700;2022-08-26T15:13:00;8.10;;;3.72;;
21848;SDS011;11089;49.852;19.700;2022-08-26T15:16:01;9.57;;;4.00;;
21848;SDS011;11089;49.852;19.700;2022-08-26T15:19:03;6.43;;;3.50;;
21848;SDS011;11089;49.852;19.700;2022-08-26T15:22:05;6.75;;;3.70;;
21848;SDS011;11089;49.852;19.700;2022-08-26T15:25:06;8.27;;;4.05;;
21848;SDS011;11089;49.852;19.700;2022-08-26T15:28:08;9.40;;;4.13;;
21848;SDS011;11089;49.852;19.700;2022-08-26T15:31:09;8.20;;;3.60;;
21848;SDS011;11089;49.852;19.700;2022-08-26T15:34:10;6.70;;;3.15;;
21848;SDS011;11089;49.852;19.700;2022-08-26T15:37:12;5.30;;;3.65;;
21848;SDS011;11089;49.852;19.700;2022-08-26T15:40:13;6.60;;;3.45;;
21848;SDS011;11089;49.852;19.700;2022-08-26T15:43:14;5.93;;;3.97;;
21848;SDS011;11089;49.852;19.700;2022-08-26T15:46:14;4.70;;;3.55;;
21848;SDS011;11089;49.852;19.700;2022-08-26T15:49:16;9.88;;;3.95;;
21848;SDS011;11089;49.852;19.700;2022-08-26T15:52:17;12.98;;;4.03;;
21848;SDS011;11089;49.852;19.700;2022-08-26T15:55:18;9.48;;;4.15;;
21848;SDS011;11089;49.852;19.700;2022-08-26T15:58:20;7.22;;;3.85;;
21848;SDS011;11089;49.852;19.700;2022-08-26T16:01:21;12.68;;;3.90;;
21848;SDS011;11089;49.852;19.700;2022-08-26T16:04:23;9.35;;;3.85;;
21848;SDS011;11089;49.852;19.700;2022-08-26T16:07:24;13.10;;;4.65;;
21848;SDS011;11089;49.852;19.700;2022-08-26T16:10:25;8.93;;;4.05;;
21848;SDS011;11089;49.852;19.700;2022-08-26T16:13:26;8.77;;;4.53;;
21848;SDS011;11089;49.852;19.700;2022-08-26T16:16:27;7.80;;;3.90;;
21848;SDS011;11089;49.852;19.700;2022-08-26T16:19:28;6.15;;;3.83;;
21848;SDS011;11089;49.852;19.700;2022-08-26T16:22:29;7.47;;;3.83;;
21848;SDS011;11089;49.852;19.700;2022-08-26T16:25:30;9.68;;;5.10;;
21848;SDS011;11089;49.852;19.700;2022-08-26T16:28:31;8.77;;;4.70;;
21848;SDS011;11089;49.852;19.700;2022-08-26T16:31:32;7.82;;;4.60;;
21848;SDS011;11089;49.852;19.700;2022-08-26T16:34:34;8.48;;;4.18;;
21848;SDS011;11089;49.852;19.700;2022-08-26T16:37:35;7.78;;;4.13;;
21848;SDS011;11089;49.852;19.700;2022-08-26T16:40:36;15.00;;;4.47;;
21848;SDS011;11089;49.852;19.700;2022-08-26T16:43:37;13.20;;;5.40;;
21848;SDS011;11089;49.852;19.700;2022-08-26T16:46:38;11.07;;;4.13;;
21848;SDS011;11089;49.852;19.700;2022-08-26T16:49:40;9.18;;;4.60;;
21848;SDS011;11089;49.852;19.700;2022-08-26T16:52:41;8.65;;;4.95;;
21848;SDS011;11089;49.852;19.700;2022-08-26T16:55:44;8.85;;;4.35;;
21848;SDS011;11089;49.852;19.700;2022-08-26T16:58:46;7.18;;;4.43;;
21848;SDS011;11089;49.852;19.700;2022-08-26T17:01:47;9.75;;;4.15;;
21848;SDS011;11089;49.852;19.700;2022-08-26T17:04:48;10.52;;;5.00;;
21848;SDS011;11089;49.852;19.700;2022-08-26T17:07:53;8.93;;;4.88;;
21848;SDS011;11089;49.852;19.700;2022-08-26T17:10:57;10.15;;;5.03;;
21848;SDS011;11089;49.852;19.700;2022-08-26T17:13:59;10.07;;;5.50;;
21848;SDS011;11089;49.852;19.700;2022-08-26T17:17:00;10.63;;;4.80;;
21848;SDS011;11089;49.852;19.700;2022-08-26T17:20:03;7.97;;;4.35;;
21848;SDS011;11089;49.852;19.700;2022-08-26T17:23:10;10.32;;;4.40;;
21848;SDS011;11089;49.852;19.700;2022-08-26T17:26:11;7.47;;;4.28;;
21848;SDS011;11089;49.852;19.700;2022-08-26T17:29:12;6.30;;;4.85;;
21848;SDS011;11089;49.852;19.700;2022-08-26T17:32:13;7.65;;;4.05;;
21848;SDS011;11089;49.852;19.700;2022-08-26T17:35:14;11.30;;;4.78;;
21848;SDS011;11089;49.852;19.700;2022-08-26T17:38:16;11.43;;;4.82;;
21848;SDS011;11089;49.852;19.700;2022-08-26T17:41:16;14.75;;;5.15;;
21848;SDS011;11089;49.852;19.700;2022-08-26T17:44:17;6.88;;;4.78;;
21848;SDS011;11089;49.852;19.700;2022-08-26T17:47:18;10.35;;;4.90;;
21848;SDS011;11089;49.852;19.700;2022-08-26T17:50:19;8.55;;;4.88;;
21848;SDS011;11089;49.852;19.700;2022-08-26T17:53:21;10.27;;;5.60;;
21848;SDS011;11089;49.852;19.700;2022-08-26T17:56:25;9.20;;;5.57;;
21848;SDS011;11089;49.852;19.700;2022-08-26T17:59:27;11.35;;;4.72;;
21848;SDS011;11089;49.852;19.700;2022-08-26T18:02:28;7.80;;;5.25;;
21848;SDS011;11089;49.852;19.700;2022-08-26T18:05:29;9.20;;;4.95;;
21848;SDS011;11089;49.852;19.700;2022-08-26T18:08:30;7.72;;;4.97;;
21848;SDS011;11089;49.852;19.700;2022-08-26T18:11:31;10.50;;;4.95;;
21848;SDS011;11089;49.852;19.700;2022-08-26T18:14:32;10.43;;;5.55;;
21848;SDS011;11089;49.852;19.700;2022-08-26T18:17:34;8.60;;;4.88;;
21848;SDS011;11089;49.852;19.700;2022-08-26T18:20:36;10.68;;;4.88;;
21848;SDS011;11089;49.852;19.700;2022-08-26T18:23:38;11.45;;;4.90;;
21848;SDS011;11089;49.852;19.700;2022-08-26T18:26:39;9.23;;;4.78;;
21848;SDS011;11089;49.852;19.700;2022-08-26T18:29:46;8.05;;;4.75;;
21848;SDS011;11089;49.852;19.700;2022-08-26T18:32:48;8.18;;;4.82;;
21848;SDS011;11089;49.852;19.700;2022-08-26T18:35:49;12.93;;;4.80;;
21848;SDS011;11089;49.852;19.700;2022-08-26T18:38:50;12.98;;;6.38;;
21848;SDS011;11089;49.852;19.700;2022-08-26T18:41:57;10.13;;;4.97;;
21848;SDS011;11089;49.852;19.700;2022-08-26T18:44:58;7.82;;;4.95;;
21848;SDS011;11089;49.852;19.700;2022-08-26T18:47:59;9.95;;;5.25;;
21848;SDS011;11089;49.852;19.700;2022-08-26T18:51:01;13.70;;;5.28;;
21848;SDS011;11089;49.852;19.700;2022-08-26T18:54:04;9.80;;;3.95;;
21848;SDS011;11089;49.852;19.700;2022-08-26T18:57:05;6.45;;;4.30;;
21848;SDS011;11089;49.852;19.700;2022-08-26T19:00:06;6.57;;;4.57;;
21848;SDS011;11089;49.852;19.700;2022-08-26T19:03:09;7.22;;;3.78;;
21848;SDS011;11089;49.852;19.700;2022-08-26T19:06:14;11.25;;;4.05;;